Time;durP1;ratioP1;P1;durP2;ratioP2;P2;SDS_P1;SDS_P2;PMS_P1;PMS_P2;Temp;Humidity;BMP_temperature;BMP_pressure;BME280_temperature;BME280_humidity;BME280_pressure;Samples;Min_cycle;Max_cycle;Signal;HPM_P1;HPM_P2
2022/06/21 00:00:30;;;;;;;7.63;5.37;;;16.60;99.90;;;17.16;nan;100619.81;4910453;29;20650;-66
2022/06/21 00:03:12;;;;;;;9.40;5.57;;;16.50;99.90;;;17.22;nan;100621.84;4915211;29;21003;-65
2022/06/21 00:05:45;;;;;;;7.80;5.53;;;16.60;99.90;;;17.22;nan;100610.44;4912682;29;20638;-68
2022/06/21 00:08:19;;;;;;;5.77;5.13;;;16.60;99.90;;;17.13;nan;100611.38;4908260;29;20767;-65
2022/06/21 00:10:47;;;;;;;6.70;5.47;;;16.50;99.90;;;17.06;nan;100619.06;4914418;29;20649;-66
2022/06/21 00:13:24;;;;;;;5.57;5.00;;;16.50;99.90;;;17.07;nan;100628.63;4912770;29;21123;-65
2022/06/21 00:15:58;;;;;;;7.23;6.00;;;16.40;99.90;;;17.02;nan;100629.06;4914776;29;20633;-66
2022/06/21 00:18:29;;;;;;;9.77;5.30;;;16.40;99.90;;;16.99;nan;100621.47;4914690;29;20756;-65
2022/06/21 00:20:56;;;;;;;6.90;5.40;;;16.40;99.90;;;17.06;nan;100627.78;4915203;29;21198;-66
2022/06/21 00:23:29;;;;;;;7.30;6.20;;;16.40;99.90;;;17.01;nan;100616.06;4915992;29;21201;-66
2022/06/21 00:25:57;;;;;;;11.07;5.77;;;16.40;99.90;;;16.95;nan;100620.09;4914066;29;20661;-65
2022/06/21 00:28:25;;;;;;;12.27;5.93;;;16.40;99.90;;;16.99;nan;100624.09;4906813;29;20682;-64
2022/06/21 00:30:54;;;;;;;9.40;5.50;;;16.30;99.90;;;16.94;nan;100618.47;4896572;29;20640;-66
2022/06/21 00:33:24;;;;;;;6.93;5.30;;;16.30;99.90;;;16.90;nan;100618.91;4894651;29;20986;-66
2022/06/21 00:35:55;;;;;;;5.00;4.43;;;16.30;99.90;;;16.89;nan;100619.88;4895908;29;20754;-65
2022/06/21 00:38:42;;;;;;;6.27;4.70;;;16.30;99.90;;;16.73;nan;100623.22;4912948;29;20738;-66
2022/06/21 00:41:11;;;;;;;6.73;5.23;;;16.10;99.90;;;16.70;nan;100620.88;4894439;29;20631;-67
2022/06/21 00:43:51;;;;;;;6.63;5.50;;;16.10;99.90;;;16.65;nan;100628.38;4903193;29;20650;-66
2022/06/21 00:46:42;;;;;;;8.00;5.83;;;16.00;99.90;;;16.66;nan;100630.06;4910354;29;20631;-67
2022/06/21 00:49:24;;;;;;;6.17;5.17;;;16.00;99.90;;;16.63;nan;100627.69;4909437;29;20686;-66
2022/06/21 00:52:10;;;;;;;5.90;4.70;;;16.00;99.90;;;16.63;nan;100638.22;4903258;29;20641;-66
2022/06/21 00:55:15;;;;;;;5.70;4.10;;;16.00;99.90;;;16.57;nan;100638.84;4928334;29;20626;-66
2022/06/21 00:57:54;;;;;;;7.33;4.37;;;15.90;99.90;;;16.47;nan;100630.13;4917443;29;20664;-66
2022/06/21 01:00:39;;;;;;;7.30;4.83;;;15.80;99.90;;;16.38;nan;100630.19;4909397;29;20619;-66
2022/06/21 01:03:15;;;;;;;7.63;6.07;;;15.80;99.90;;;16.36;nan;100627.72;4913299;29;20701;-68
2022/06/21 01:05:45;;;;;;;8.60;5.40;;;15.70;99.90;;;16.40;nan;100628.25;4927808;29;20640;-66
2022/06/21 01:08:20;;;;;;;6.17;5.27;;;15.80;99.90;;;16.42;nan;100629.75;4910118;29;20685;-67
2022/06/21 01:10:52;;;;;;;7.87;4.70;;;15.80;99.90;;;16.49;nan;100624.72;4912525;29;20997;-65
2022/06/21 01:13:24;;;;;;;5.33;4.10;;;15.80;99.90;;;16.54;nan;100614.59;4912677;29;20634;-64
2022/06/21 01:15:54;;;;;;;5.63;5.07;;;15.90;99.90;;;16.51;nan;100617.53;4927474;29;20638;-64
2022/06/21 01:18:23;;;;;;;6.00;4.80;;;15.90;99.90;;;16.48;nan;100605.47;4912442;29;20676;-65
2022/06/21 01:20:57;;;;;;;9.37;5.40;;;15.90;99.90;;;16.47;nan;100603.81;4908525;29;20639;-64
2022/06/21 01:23:40;;;;;;;5.80;4.30;;;15.90;99.90;;;16.43;nan;100596.34;4894583;29;20751;-64
2022/06/21 01:26:28;;;;;;;6.20;5.23;;;15.80;99.90;;;16.44;nan;100596.19;4900757;29;20638;-65
2022/06/21 01:28:57;;;;;;;5.80;5.20;;;15.80;99.90;;;16.44;nan;100613.81;4912633;29;20677;-66
2022/06/21 01:31:25;;;;;;;9.20;5.07;;;15.80;99.90;;;16.39;nan;100616.06;4913542;29;20618;-66
2022/06/21 01:33:52;;;;;;;6.70;5.80;;;15.80;99.90;;;16.41;nan;100609.66;4906642;29;20627;-66
2022/06/21 01:36:35;;;;;;;7.00;5.60;;;15.80;99.90;;;16.40;nan;100612.47;4894605;29;20962;-65
2022/06/21 01:39:18;;;;;;;7.77;6.27;;;15.80;99.90;;;16.47;nan;100602.97;4899668;29;20666;-66
2022/06/21 01:42:20;;;;;;;7.67;6.03;;;15.80;99.90;;;16.52;nan;100603.41;4912352;29;20649;-65
2022/06/21 01:44:52;;;;;;;7.60;6.37;;;15.90;99.90;;;16.50;nan;100592.19;4909614;29;20646;-66
2022/06/21 01:47:26;;;;;;;9.10;6.40;;;15.90;99.90;;;16.43;nan;100598.97;4912493;29;20630;-67
2022/06/21 01:50:00;;;;;;;9.43;6.40;;;15.80;99.90;;;16.40;nan;100600.09;4912308;29;20677;-66
2022/06/21 01:52:34;;;;;;;11.50;7.40;;;15.80;99.90;;;16.35;nan;100597.09;4927002;29;20625;-66
2022/06/21 01:55:15;;;;;;;8.20;6.20;;;15.70;99.90;;;16.35;nan;100597.09;4927739;29;20642;-66
2022/06/21 01:57:42;;;;;;;9.87;7.80;;;15.70;99.90;;;16.38;nan;100596.78;4927618;29;21000;-65
2022/06/21 02:00:10;;;;;;;8.93;6.80;;;15.80;99.90;;;16.32;nan;100592.13;4913021;29;20641;-64
2022/06/21 02:02:50;;;;;;;8.83;6.30;;;15.70;99.90;;;16.21;nan;100597.56;4912736;29;20642;-67
2022/06/21 02:05:27;;;;;;;8.17;6.97;;;15.70;99.90;;;16.23;nan;100600.88;4912887;29;21232;-67
2022/06/21 02:08:09;;;;;;;11.53;7.00;;;15.60;99.90;;;16.20;nan;100595.94;4930994;29;21288;-66
2022/06/21 02:11:06;;;;;;;7.97;6.37;;;15.60;99.90;;;16.14;nan;100586.81;4931674;29;21023;-66
2022/06/21 02:13:44;;;;;;;9.77;7.50;;;15.60;99.90;;;16.09;nan;100588.22;4914317;29;20641;-67
2022/06/21 02:16:20;;;;;;;8.60;7.40;;;15.50;99.90;;;16.07;nan;100584.91;4897257;29;20630;-66
2022/06/21 02:18:56;;;;;;;10.73;6.77;;;15.50;99.90;;;15.99;nan;100582.19;4910537;29;20666;-64
2022/06/21 02:21:38;;;;;;;11.00;6.93;;;15.40;99.90;;;15.97;nan;100581.50;4915909;29;20622;-65
2022/06/21 02:24:05;;;;;;;8.37;6.63;;;15.40;99.90;;;15.93;nan;100577.53;4915429;29;20644;-66
2022/06/21 02:26:34;;;;;;;8.80;6.40;;;15.40;99.90;;;15.82;nan;100575.06;4916991;29;21006;-65
2022/06/21 02:29:01;;;;;;;7.20;6.33;;;15.30;99.90;;;15.81;nan;100573.41;4929983;29;21054;-66
2022/06/21 02:31:29;;;;;;;9.03;7.10;;;15.30;99.90;;;15.81;nan;100568.97;4914812;29;21058;-67
2022/06/21 02:34:03;;;;;;;6.27;5.57;;;15.30;99.90;;;15.75;nan;100564.28;4929398;29;20646;-67
2022/06/21 02:36:41;;;;;;;6.00;5.33;;;15.30;99.90;;;15.73;nan;100566.25;4916346;29;20628;-65
2022/06/21 02:39:17;;;;;;;8.00;5.83;;;15.20;99.90;;;15.67;nan;100566.00;4914525;29;21264;-66
2022/06/21 02:41:52;;;;;;;7.47;5.50;;;15.10;99.90;;;15.65;nan;100565.31;4899035;29;20656;-65
2022/06/21 02:44:47;;;;;;;9.90;6.67;;;15.10;99.90;;;15.63;nan;100575.16;4915593;29;20616;-66
2022/06/21 02:47:32;;;;;;;6.67;5.83;;;15.10;99.90;;;15.67;nan;100577.34;4915254;29;20649;-67
2022/06/21 02:50:06;;;;;;;8.70;5.90;;;15.10;99.90;;;15.72;nan;100572.47;4929859;29;21260;-65
2022/06/21 02:52:40;;;;;;;8.90;6.30;;;15.20;99.90;;;15.65;nan;100575.81;4929790;29;20625;-64
2022/06/21 02:55:37;;;;;;;7.37;6.37;;;15.10;99.90;;;15.60;nan;100571.00;4914967;29;20636;-65
2022/06/21 02:58:10;;;;;;;8.27;7.10;;;15.10;99.90;;;15.63;nan;100569.88;4916042;29;20665;-64
2022/06/21 03:00:38;;;;;;;8.20;6.87;;;15.10;99.90;;;15.65;nan;100562.69;4929584;29;20642;-66
2022/06/21 03:03:08;;;;;;;10.57;7.43;;;15.10;99.90;;;15.69;nan;100569.31;4923082;29;21242;-65
2022/06/21 03:05:35;;;;;;;9.13;7.10;;;15.10;99.90;;;15.73;nan;100566.25;4895969;29;20701;-65
2022/06/21 03:08:05;;;;;;;8.87;6.70;;;15.10;99.90;;;15.73;nan;100560.16;4915368;29;20977;-65
2022/06/21 03:10:39;;;;;;;10.50;7.77;;;15.20;99.90;;;15.68;nan;100552.69;4930316;29;20626;-65
2022/06/21 03:13:33;;;;;;;13.17;7.50;;;15.10;99.90;;;15.68;nan;100557.94;4926369;29;20639;-65
2022/06/21 03:16:06;;;;;;;10.27;8.03;;;15.10;99.90;;;15.74;nan;100546.03;4929969;29;20636;-66
2022/06/21 03:18:44;;;;;;;9.27;7.07;;;15.20;99.90;;;15.67;nan;100539.69;4913378;29;20665;-66
2022/06/21 03:21:14;;;;;;;11.73;7.27;;;15.20;99.90;;;15.64;nan;100538.16;4929152;29;20641;-67
2022/06/21 03:23:42;;;;;;;12.87;7.40;;;15.10;99.90;;;15.68;nan;100530.81;4930140;29;20762;-65
2022/06/21 03:26:13;;;;;;;8.37;6.63;;;15.10;99.90;;;15.76;nan;100533.56;4913873;29;20629;-65
2022/06/21 03:28:46;;;;;;;9.13;6.00;;;15.20;99.90;;;15.72;nan;100527.75;4931055;29;20681;-65
2022/06/21 03:31:25;;;;;;;8.83;7.60;;;15.20;99.90;;;15.70;nan;100515.72;4915093;29;20642;-67
2022/06/21 03:34:02;;;;;;;9.30;7.17;;;15.20;99.90;;;15.72;nan;100521.66;4901113;29;20638;-66
2022/06/21 03:36:30;;;;;;;10.57;6.93;;;15.20;99.90;;;15.72;nan;100516.38;4897553;29;20622;-65
2022/06/21 03:39:11;;;;;;;8.93;7.27;;;15.20;99.90;;;15.68;nan;100509.75;4930980;29;20653;-64
2022/06/21 03:41:43;;;;;;;13.53;7.30;;;15.20;99.90;;;15.70;nan;100507.81;4913396;29;20657;-66
2022/06/21 03:44:21;;;;;;;10.00;7.53;;;15.20;99.90;;;15.65;nan;100510.06;4913054;29;20646;-65
2022/06/21 03:46:56;;;;;;;10.33;7.10;;;15.20;99.90;;;15.79;nan;100506.94;4913828;29;20644;-65
2022/06/21 03:49:55;;;;;;;8.27;6.60;;;15.30;99.90;;;15.94;nan;100505.47;4913789;29;20665;-64
2022/06/21 03:52:42;;;;;;;8.70;6.70;;;15.40;99.90;;;16.03;nan;100504.59;4911608;29;20649;-66
2022/06/21 03:55:47;;;;;;;11.00;6.17;;;15.60;99.90;;;16.24;nan;100511.25;4897988;29;20630;-66
2022/06/21 03:58:42;;;;;;;9.00;6.77;;;15.80;99.90;;;16.40;nan;100507.94;4913294;29;20672;-66
2022/06/21 04:01:30;;;;;;;9.53;5.93;;;16.00;99.90;;;16.46;nan;100496.78;4914386;29;20649;-66
2022/06/21 04:04:26;;;;;;;8.10;6.13;;;16.00;99.90;;;16.48;nan;100500.13;4914235;29;20633;-66
2022/06/21 04:07:13;;;;;;;9.83;6.87;;;16.10;99.90;;;16.43;nan;100502.38;4912911;29;20634;-66
2022/06/21 04:09:46;;;;;;;7.27;6.30;;;16.00;99.90;;;16.62;nan;100501.41;4911896;29;20692;-66
2022/06/21 04:12:34;;;;;;;11.20;6.53;;;16.10;99.90;;;16.72;nan;100502.16;4904751;29;20702;-65
2022/06/21 04:15:21;;;;;;;6.10;5.50;;;16.30;99.90;;;16.93;nan;100503.47;4912093;29;20634;-66
2022/06/21 04:18:03;;;;;;;7.67;6.10;;;16.50;99.90;;;17.13;nan;100504.09;4911830;29;21049;-66
2022/06/21 04:20:47;;;;;;;7.93;6.20;;;16.70;99.90;;;17.43;nan;100506.25;4913361;29;20634;-66
2022/06/21 04:23:36;;;;;;;7.60;6.20;;;17.00;99.90;;;17.78;nan;100500.84;4913825;29;21198;-66
2022/06/21 04:26:28;;;;;;;8.33;5.80;;;17.40;99.90;;;18.08;nan;100503.91;4913332;29;20645;-67
2022/06/21 04:29:33;;;;;;;8.27;4.97;;;17.70;99.90;;;18.23;nan;100508.38;4913372;29;21245;-67
2022/06/21 04:32:30;;;;;;;7.67;6.00;;;17.90;99.90;;;18.31;nan;100505.78;4925615;29;20629;-67
2022/06/21 04:35:25;;;;;;;6.03;5.40;;;17.90;99.90;;;18.48;nan;100507.47;4903835;29;20649;-65
2022/06/21 04:38:25;;;;;;;8.20;5.13;;;18.20;99.90;;;18.58;nan;100502.88;4904764;29;20651;-67
2022/06/21 04:40:59;;;;;;;8.20;5.60;;;18.20;99.90;;;18.70;nan;100502.53;4913468;29;20630;-67
2022/06/21 04:43:59;;;;;;;5.33;4.50;;;18.40;99.90;;;19.02;nan;100515.72;4922008;29;21275;-65
2022/06/21 04:46:41;;;;;;;5.83;5.20;;;18.60;99.90;;;19.12;nan;100513.75;4909282;29;20630;-66
2022/06/21 04:49:32;;;;;;;6.77;5.40;;;18.80;99.90;;;19.20;nan;100503.13;4941482;23;20695;-64
2022/06/21 04:52:19;;;;;;;5.57;5.07;;;18.80;99.90;;;19.16;nan;100501.81;4968780;28;20622;-64
2022/06/21 04:54:47;;;;;;;8.20;5.43;;;18.80;99.90;;;19.20;nan;100503.13;4953443;28;20624;-64
2022/06/21 04:57:45;;;;;;;7.60;5.50;;;18.80;99.90;;;19.31;nan;100500.16;4970156;28;20768;-64
2022/06/21 05:00:20;;;;;;;6.43;5.60;;;19.00;99.80;;;19.26;nan;100500.66;4928874;28;20668;-62
2022/06/21 05:03:09;;;;;;;6.53;5.47;;;19.00;99.50;;;19.28;nan;100495.19;4952218;28;20636;-64
2022/06/21 05:05:37;;;;;;;6.37;5.13;;;18.90;99.60;;;19.27;nan;100498.84;4951788;28;20639;-64
2022/06/21 05:08:13;;;;;;;6.87;5.37;;;18.90;99.60;;;19.41;nan;100499.97;4944167;28;20637;-64
2022/06/21 05:10:48;;;;;;;6.20;5.60;;;19.00;99.40;;;19.62;nan;100509.00;4942585;29;20619;-65
2022/06/21 05:13:33;;;;;;;5.87;5.37;;;19.20;98.60;;;19.69;nan;100502.03;4946638;28;20648;-64
2022/06/21 05:16:10;;;;;;;6.40;5.80;;;19.30;98.80;;;19.85;nan;100507.25;4950394;29;21873;-65
2022/06/21 05:18:45;;;;;;;6.10;5.57;;;19.60;97.80;;;19.89;nan;100515.69;4966464;28;20643;-64
2022/06/21 05:21:17;;;;;;;6.30;5.70;;;19.60;97.60;;;19.99;nan;100521.59;4951251;28;20647;-64
2022/06/21 05:23:46;;;;;;;9.00;5.73;;;19.70;97.40;;;19.75;nan;100519.88;4950450;29;20616;-65
2022/06/21 05:26:25;;;;;;;8.33;6.10;;;19.60;97.40;;;19.97;nan;100505.88;4950339;28;20761;-64
2022/06/21 05:29:29;;;;;;;9.00;5.90;;;19.70;97.80;;;20.34;nan;100515.75;4951965;28;20679;-64
2022/06/21 05:32:00;;;;;;;7.23;5.83;;;20.10;97.30;;;20.49;nan;100503.41;4948875;29;21483;-65
2022/06/21 05:34:52;;;;;;;5.73;5.00;;;20.20;96.80;;;20.78;nan;100500.03;4949784;29;21013;-65
2022/06/21 05:37:47;;;;;;;6.17;5.07;;;20.50;96.70;;;21.08;nan;100508.91;4966408;28;20620;-65
2022/06/21 05:40:37;;;;;;;6.53;5.30;;;20.90;95.70;;;21.31;nan;100507.84;4949383;28;20671;-65
2022/06/21 05:43:11;;;;;;;6.03;5.33;;;20.90;95.60;;;21.45;nan;100514.97;4952923;28;20668;-65
2022/06/21 05:45:41;;;;;;;6.87;6.10;;;21.40;94.70;;;21.67;nan;100513.22;4948097;28;20652;-65
2022/06/21 05:48:23;;;;;;;6.23;5.53;;;21.40;94.20;;;21.68;nan;100498.94;4950309;28;20640;-64
2022/06/21 05:50:51;;;;;;;6.80;5.67;;;21.40;93.90;;;21.85;nan;100515.53;4949681;29;20644;-65
2022/06/21 05:53:41;;;;;;;6.43;5.83;;;21.50;94.00;;;22.04;nan;100513.09;4951304;28;21384;-64
2022/06/21 05:56:13;;;;;;;6.40;5.50;;;21.70;93.60;;;22.43;nan;100504.72;4951777;28;20636;-64
2022/06/21 05:58:55;;;;;;;5.47;4.40;;;22.10;93.00;;;22.88;nan;100509.69;4952047;29;20700;-65
2022/06/21 06:01:50;;;;;;;12.63;5.43;;;22.70;92.00;;;23.28;nan;100512.59;4948851;28;21037;-64
2022/06/21 06:04:29;;;;;;;6.30;5.70;;;23.10;91.00;;;23.95;nan;100518.13;4950137;29;20667;-64
2022/06/21 06:06:58;;;;;;;9.27;4.83;;;23.60;90.30;;;24.16;nan;100499.34;4946010;28;20633;-65
2022/06/21 06:09:34;;;;;;;5.33;4.90;;;23.90;89.00;;;24.86;nan;100504.19;4950817;28;20687;-65
2022/06/21 06:12:10;;;;;;;9.60;5.87;;;24.50;87.70;;;;;;4949469;28;20640;-65
2022/06/21 06:14:43;;;;;;;8.00;6.10;;;25.20;85.30;;;;;;4950241;28;21274;-64
2022/06/21 06:17:41;;;;;;;9.17;6.50;;;25.70;82.90;;;;;;4943513;28;21240;-64
2022/06/21 06:20:26;;;;;;;7.60;6.90;;;25.50;81.70;;;;;;4947734;28;20674;-65
2022/06/21 06:23:02;;;;;;;10.50;8.07;;;25.30;82.90;;;;;;4950774;28;20675;-64
2022/06/21 06:25:37;;;;;;;7.23;6.50;;;25.30;82.30;;;;;;4951780;28;20626;-65
2022/06/21 06:28:19;;;;;;;8.03;6.27;;;25.40;81.30;;;;;;4949913;28;20647;-64
2022/06/21 06:30:48;;;;;;;7.60;6.63;;;25.90;80.80;;;;;;4951047;28;20634;-64
2022/06/21 06:33:43;;;;;;;6.53;5.93;;;26.30;78.50;;;;;;4951748;28;20676;-65
2022/06/21 06:36:16;;;;;;;6.17;5.57;;;26.90;76.90;;;;;;4943457;28;20654;-65
2022/06/21 06:38:43;;;;;;;7.50;6.30;;;27.60;74.10;;;;;;4951198;28;20718;-65
2022/06/21 06:41:27;;;;;;;6.70;6.00;;;27.90;72.80;;;;;;4951376;28;20624;-65
2022/06/21 06:43:58;;;;;;;7.73;6.67;;;28.40;71.20;;;;;;4950881;28;20746;-65
2022/06/21 06:46:36;;;;;;;6.73;6.17;;;29.60;68.40;;;;;;4950639;28;20723;-64
2022/06/21 06:49:30;;;;;;;7.07;5.93;;;30.20;65.40;;;;;;4939610;28;20672;-65
2022/06/21 06:52:11;;;;;;;8.13;5.73;;;31.00;63.20;;;;;;4952218;28;21420;-64
2022/06/21 06:54:40;;;;;;;5.80;5.03;;;31.80;61.30;;;;;;4954678;28;20626;-64
2022/06/21 06:57:52;;;;;;;6.13;5.53;;;31.90;59.40;;;;;;4953959;28;20643;-64
2022/06/21 07:00:24;;;;;;;6.20;5.60;;;31.00;59.70;;;;;;4953880;29;20747;-65
2022/06/21 07:03:00;;;;;;;6.83;5.93;;;29.20;61.80;;;;;;4935924;28;20629;-65
2022/06/21 07:05:36;;;;;;;7.20;5.63;;;28.00;64.50;;;;;;4950979;29;20651;-65
2022/06/21 07:08:24;;;;;;;6.97;6.30;;;26.90;66.80;;;;;;4941603;28;21263;-65
2022/06/21 07:10:52;;;;;;;8.00;6.40;;;27.50;67.60;;;;;;4935881;29;20664;-65
2022/06/21 07:13:20;;;;;;;6.77;6.10;;;29.30;64.10;;;;;;4948904;28;20985;-65
2022/06/21 07:15:48;;;;;;;6.73;5.80;;;31.40;60.60;;;;;;4953330;28;20640;-65
2022/06/21 07:18:31;;;;;;;5.97;5.37;;;33.30;56.90;;;35.56;nan;100579.28;4948151;28;20644;-65
2022/06/21 07:21:05;;;;;;;7.13;5.53;;;34.90;54.10;;;36.29;nan;100577.59;4967618;28;20884;-65
2022/06/21 07:23:32;;;;;;;5.53;5.10;;;35.80;51.10;;;37.08;nan;100573.78;4954238;28;20622;-65
2022/06/21 07:26:11;;;;;;;5.50;5.10;;;36.50;49.80;;;38.26;nan;100562.13;4952709;29;20644;-65
2022/06/21 07:28:52;;;;;;;5.13;4.60;;;37.60;48.10;;;39.10;nan;100553.66;4953078;29;20671;-65
2022/06/21 07:31:35;;;;;;;7.20;5.63;;;38.50;46.60;;;39.83;nan;100530.97;4951368;28;20647;-65
2022/06/21 07:34:20;;;;;;;6.30;5.07;;;39.00;45.30;;;40.40;nan;100496.63;4953227;29;20608;-66
2022/06/21 07:37:12;;;;;;;4.43;4.13;;;39.90;44.00;;;40.24;nan;100436.06;4952028;28;20643;-65
2022/06/21 07:39:41;;;;;;;3.77;3.50;;;39.90;42.30;;;39.00;nan;100370.25;4948339;28;20664;-65
2022/06/21 07:42:54;;;;;;;4.20;3.90;;;38.90;41.80;;;38.33;nan;100333.66;4937467;28;20651;-63
2022/06/21 07:45:47;;;;;;;4.27;3.90;;;38.00;43.10;;;36.50;nan;100345.41;4948708;29;20628;-65
2022/06/21 07:48:37;;;;;;;4.00;3.80;;;37.50;42.80;;;33.86;nan;100363.31;4951506;29;20980;-65
2022/06/21 07:51:21;;;;;;;3.60;3.40;;;34.20;45.60;;;31.03;nan;100362.31;4950293;28;20640;-65
2022/06/21 07:54:17;;;;;;;3.80;3.40;;;30.70;48.60;;;29.27;nan;100399.59;4951684;28;20644;-65
2022/06/21 07:57:08;;;;;;;3.40;3.20;;;28.90;50.90;;;27.77;nan;100417.09;4944771;28;20648;-65
2022/06/21 07:59:44;;;;;;;3.63;2.83;;;27.50;53.20;;;26.73;nan;100414.56;4954220;28;20655;-65
2022/06/21 08:08:40;;;;;;;3.80;3.10;;;26.20;55.80;;;27.61;nan;100409.72;4952932;28;20681;-66
2022/06/21 08:11:15;;;;;;;4.37;2.80;;;27.00;54.30;;;27.76;nan;100403.94;4952179;29;20770;-65
2022/06/21 08:13:43;;;;;;;2.40;2.20;;;27.20;52.30;;;26.78;nan;100381.81;4951730;28;21158;-66
2022/06/21 08:16:16;;;;;;;4.17;2.70;;;26.50;53.00;;;26.83;nan;100385.44;4947088;29;20624;-64
2022/06/21 08:19:14;;;;;;;2.57;2.40;;;26.20;54.00;;;26.07;nan;100394.69;4950353;29;20660;-66
2022/06/21 08:21:56;;;;;;;2.50;2.30;;;25.70;54.10;;;26.24;nan;100395.03;4952675;28;21056;-65
2022/06/21 08:24:39;;;;;;;3.20;2.20;;;25.80;53.20;;;28.81;nan;100398.59;4952371;28;20632;-65
2022/06/21 08:27:22;;;;;;;1.73;1.63;;;27.80;51.30;;;30.87;nan;100411.63;4951359;29;20628;-65
2022/06/21 08:30:25;;;;;;;2.40;2.20;;;31.00;47.10;;;30.02;nan;100401.09;4950913;28;20679;-65
2022/06/21 08:33:21;;;;;;;2.07;1.97;;;30.20;46.80;;;30.47;nan;100418.03;4952550;28;20646;-65
2022/06/21 08:36:12;;;;;;;2.10;2.00;;;30.00;46.80;;;30.76;nan;100405.25;4951755;29;20628;-65
2022/06/21 08:39:02;;;;;;;7.03;2.87;;;30.30;46.20;;;30.00;nan;100403.19;4966513;28;20660;-65
2022/06/21 08:41:55;;;;;;;3.03;2.40;;;29.50;47.10;;;31.21;nan;100402.41;4946822;28;20632;-65
2022/06/21 08:48:05;;;;;;;1.43;1.33;;;33.00;44.80;;;34.14;nan;100398.00;4942522;28;20647;-66
2022/06/21 08:50:50;;;;;;;2.30;2.10;;;34.40;42.10;;;34.57;nan;100393.94;4952002;28;20668;-67
2022/06/21 08:53:49;;;;;;;2.70;2.20;;;34.40;41.90;;;34.93;nan;100390.06;4950941;28;20640;-65
2022/06/21 08:56:28;;;;;;;3.00;2.43;;;34.40;42.30;;;33.95;nan;100394.16;4947476;28;20631;-64
2022/06/21 08:59:15;;;;;;;10.90;8.87;;;33.80;42.20;;;35.24;nan;100390.81;4947564;28;20668;-63
2022/06/21 09:02:21;;;;;;;2.27;2.17;;;34.90;41.00;;;36.02;nan;100384.41;4949422;28;20640;-66
2022/06/21 09:05:51;;;;;;;0.73;0.73;;;35.80;39.90;;;36.56;nan;100392.38;4946477;28;20628;-67
2022/06/21 09:08:46;;;;;;;1.73;1.63;;;36.80;39.30;;;36.86;nan;100388.53;4942093;28;20646;-65
2022/06/21 09:11:43;;;;;;;2.03;1.67;;;36.80;39.00;;;35.59;nan;100396.88;4954622;28;20672;-65
2022/06/21 09:14:37;;;;;;;4.77;1.93;;;36.30;38.40;;;36.91;nan;100386.59;4949420;28;20632;-66
2022/06/21 09:17:16;;;;;;;2.53;1.67;;;36.90;38.00;;;36.73;nan;100389.22;4952827;28;21057;-64
2022/06/21 09:20:40;;;;;;;2.10;1.90;;;36.30;38.70;;;39.60;nan;100390.84;4951453;28;20667;-69
2022/06/21 09:23:34;;;;;;;1.73;1.63;;;38.60;37.90;;;40.50;nan;100398.78;4932927;29;20625;-66
2022/06/21 09:26:18;;;;;;;2.00;1.90;;;40.30;36.20;;;41.35;nan;100387.38;4933456;28;20633;-65
2022/06/21 09:29:21;;;;;;;1.70;1.60;;;40.70;35.90;;;42.80;nan;100399.31;4935589;29;20652;-66
2022/06/21 09:32:19;;;;;;;4.13;1.73;;;42.20;35.20;;;43.37;nan;100400.47;4951139;28;20651;-66
2022/06/21 09:35:22;;;;;;;2.13;1.80;;;42.60;34.70;;;45.37;nan;100398.50;4944377;28;20718;-66
2022/06/21 09:38:35;;;;;;;1.87;1.77;;;44.60;34.00;;;46.08;nan;100384.06;4928763;28;20642;-65
2022/06/21 09:41:24;;;;;;;2.20;2.10;;;45.90;32.70;;;46.18;nan;100385.47;4951187;28;20757;-64
2022/06/21 09:44:30;;;;;;;1.80;1.70;;;45.50;32.30;;;42.02;nan;100381.44;4949728;28;20644;-64
2022/06/21 09:47:26;;;;;;;2.03;1.93;;;43.00;32.30;;;41.28;nan;100369.78;4951352;28;20635;-67
2022/06/21 09:50:21;;;;;;;2.40;2.30;;;41.10;33.60;;;41.53;nan;100360.81;4949200;28;20676;-64
2022/06/21 09:53:06;;;;;;;6.27;3.60;;;41.30;33.40;;;38.55;nan;100353.66;4964642;28;21744;-64
2022/06/21 09:56:00;;;;;;;2.00;1.70;;;38.80;34.50;;;34.72;nan;100351.38;4950501;29;20608;-66
2022/06/21 09:58:46;;;;;;;2.47;2.37;;;34.70;37.80;;;33.51;nan;100347.84;4950125;28;20672;-67
2022/06/21 10:01:31;;;;;;;2.00;1.90;;;32.90;39.40;;;32.98;nan;100346.25;4952491;28;20632;-67
2022/06/21 10:04:04;;;;;;;2.13;1.93;;;32.20;40.40;;;33.26;nan;100337.75;4950079;28;20640;-67
2022/06/21 10:07:19;;;;;;;2.50;2.23;;;32.50;40.50;;;33.20;nan;100352.31;4952006;28;21004;-66
2022/06/21 10:10:22;;;;;;;2.10;1.93;;;32.30;40.40;;;33.44;nan;100348.06;4946597;28;20691;-64
2022/06/21 10:13:31;;;;;;;2.30;2.07;;;32.60;39.90;;;36.45;nan;100358.25;4951081;28;20648;-64
2022/06/21 10:16:40;;;;;;;3.07;2.17;;;35.30;39.00;;;37.99;nan;100367.44;4933193;28;20632;-64
2022/06/21 10:19:13;;;;;;;2.40;2.20;;;37.50;37.30;;;37.20;nan;100353.88;4949407;28;20719;-66
2022/06/21 10:22:16;;;;;;;3.80;2.63;;;37.20;36.90;;;36.79;nan;100342.66;4951370;28;20636;-66
2022/06/21 10:25:20;;;;;;;3.07;2.03;;;36.10;38.10;;;35.43;nan;100340.25;4932224;29;20643;-66
2022/06/21 10:28:43;;;;;;;2.33;1.83;;;34.70;38.10;;;32.45;nan;100341.88;4954902;28;20631;-64
2022/06/21 10:31:34;;;;;;;1.60;1.57;;;32.90;39.20;;;31.36;nan;100329.78;4954985;28;20680;-67
2022/06/21 10:34:40;;;;;;;2.27;2.13;;;30.80;40.00;;;;;;4954283;29;20627;-67
2022/06/21 10:37:07;;;;;;;1.43;1.43;;;30.30;41.30;;;;;;4954387;28;20715;-66
2022/06/21 10:39:53;;;;;;;1.53;1.07;;;30.00;41.10;;;;;;4952402;28;20681;-65
2022/06/21 10:42:47;;;;;;;1.80;1.70;;;29.60;40.70;;;29.12;nan;100322.16;4955224;28;21069;-65
2022/06/21 10:45:35;;;;;;;1.80;1.70;;;28.70;40.90;;;28.89;nan;100317.66;4948648;28;20663;-65
2022/06/21 10:48:32;;;;;;;1.63;1.53;;;28.30;41.40;;;28.99;nan;100309.81;4947312;29;20655;-66
2022/06/21 10:51:56;;;;;;;1.50;1.50;;;28.10;41.00;;;28.68;nan;100310.25;4981275;23;20686;-66
2022/06/21 10:54:51;;;;;;;1.90;1.80;;;27.90;42.20;;;28.78;nan;100323.03;4955847;28;20671;-64
2022/06/21 10:57:37;;;;;;;2.73;1.90;;;28.00;43.60;;;28.90;nan;100305.84;4954267;28;20644;-65
2022/06/21 11:03:28;;;;;;;0.93;0.93;;;28.20;43.10;;;28.81;nan;100296.56;4953767;28;20646;-66
2022/06/21 11:06:24;;;;;;;2.20;2.10;;;28.10;43.20;;;28.59;nan;100287.47;4954457;28;20616;-66
2022/06/21 11:09:05;;;;;;;2.60;2.10;;;27.90;44.00;;;28.36;nan;100288.28;4950225;28;20635;-66
2022/06/21 11:11:50;;;;;;;4.13;2.63;;;27.80;44.20;;;27.93;nan;100281.59;4952690;29;20667;-67
2022/06/21 11:15:13;;;;;;;2.87;2.67;;;27.20;45.10;;;27.91;nan;100255.00;4950021;28;20636;-67
2022/06/21 11:18:06;;;;;;;2.60;2.00;;;27.10;45.70;;;28.05;nan;100252.94;4933489;29;20640;-66
2022/06/21 11:20:58;;;;;;;3.33;2.17;;;27.30;45.10;;;27.85;nan;100257.78;4925986;29;20664;-68
2022/06/21 11:23:47;;;;;;;2.13;1.93;;;27.10;44.90;;;27.77;nan;100255.47;4935174;29;20636;-67
2022/06/21 11:26:38;;;;;;;2.20;2.00;;;27.00;45.50;;;27.71;nan;100240.31;4951003;28;20639;-68
2022/06/21 11:29:57;;;;;;;2.10;2.00;;;27.00;45.90;;;27.77;nan;100250.91;4948450;28;20648;-68
2022/06/21 11:33:03;;;;;;;1.80;1.70;;;27.00;46.30;;;27.64;nan;100249.25;4910088;29;20641;-67
2022/06/21 11:36:28;;;;;;;1.97;1.87;;;26.90;46.60;;;27.66;nan;100252.50;4933526;29;20616;-66
2022/06/21 11:39:32;;;;;;;2.50;2.00;;;26.80;46.90;;;27.78;nan;100257.91;4941243;28;20640;-67
2022/06/21 11:42:33;;;;;;;2.40;2.30;;;27.00;46.80;;;27.93;nan;100257.44;4953838;29;20639;-67
2022/06/21 11:45:33;;;;;;;2.00;1.90;;;27.10;46.90;;;27.72;nan;100250.78;4948776;28;20644;-68
2022/06/21 11:48:40;;;;;;;2.30;2.20;;;27.10;47.80;;;28.01;nan;100255.28;4953341;29;20627;-69
2022/06/21 11:51:18;;;;;;;2.90;2.70;;;27.20;47.30;;;28.28;nan;100244.91;4953104;28;20697;-66
2022/06/21 11:54:10;;;;;;;2.80;2.60;;;27.50;47.10;;;28.39;nan;100233.31;4953923;28;20988;-65
2022/06/21 11:57:28;;;;;;;2.53;2.30;;;27.70;46.70;;;28.50;nan;100218.25;4950827;28;20647;-66
2022/06/21 12:00:05;;;;;;;4.03;2.23;;;27.70;47.20;;;28.35;nan;100230.31;4955929;28;20681;-67
2022/06/21 12:02:57;;;;;;;2.40;2.20;;;27.80;47.00;;;28.27;nan;100219.13;4941651;28;20639;-65